Time;durP1;ratioP1;P1;durP2;ratioP2;P2;SDS_P1;SDS_P2;PMS_P1;PMS_P2;Temp;Humidity;BMP_temperature;BMP_pressure;BME280_temperature;BME280_humidity;BME280_pressure;Samples;Min_cycle;Max_cycle;Signal;HPM_P1;HPM_P2
2024/03/14 00:00:16;;;;;;;0.00;0.00;;;;;;;9.56;64.52;101101.72;15763468;28;20041;-51
2024/03/14 00:07:56;;;;;;;1.50;0.95;;;;;;;9.65;65.34;101103.25;15753035;28;20067;-52
2024/03/14 00:15:31;;;;;;;0.08;0.03;;;;;;;9.22;70.35;101097.09;15764381;28;20127;-49
2024/03/14 04:03:29;;;;;;;1.95;1.08;;;;;;;10.59;81.38;100994.53;15846650;28;20059;-53
2024/03/14 04:11:12;;;;;;;0.65;0.45;;;;;;;10.22;82.28;100994.00;15835713;28;20104;-52
2024/03/14 04:18:46;;;;;;;0.17;0.17;;;;;;;10.32;82.48;101004.38;15820276;28;20032;-52
2024/03/14 04:26:23;;;;;;;0.20;0.20;;;;;;;10.02;83.88;100996.59;15802719;28;20415;-51
2024/03/14 04:33:59;;;;;;;0.73;0.43;;;;;;;10.35;83.97;100990.53;15803107;28;20040;-52
2024/03/14 04:41:37;;;;;;;0.57;0.45;;;;;;;10.22;84.72;101008.25;15833859;28;20036;-52
2024/03/14 04:49:12;;;;;;;0.60;0.47;;;;;;;10.49;83.63;101005.66;15799219;28;20040;-52
2024/03/14 04:56:46;;;;;;;0.05;0.05;;;;;;;10.64;83.34;101000.94;15781852;28;20086;-50
2024/03/14 05:04:19;;;;;;;0.10;0.10;;;;;;;10.52;84.75;101009.78;15790140;28;20044;-53
2024/03/14 05:11:53;;;;;;;0.68;0.68;;;;;;;10.13;84.88;101001.41;15779059;28;20048;-51
2024/03/14 05:19:27;;;;;;;1.27;1.17;;;;;;;10.61;83.98;101009.41;15793583;28;20053;-51
2024/03/14 05:27:02;;;;;;;0.32;0.32;;;;;;;10.56;84.37;101005.69;15788453;28;20043;-52
2024/03/14 05:34:36;;;;;;;0.20;0.20;;;;;;;10.30;85.55;101003.75;15804819;28;20047;-51
2024/03/14 05:42:12;;;;;;;0.88;0.47;;;;;;;10.35;85.67;101002.13;15772529;28;20433;-50
2024/03/14 05:49:46;;;;;;;0.30;0.30;;;;;;;10.67;83.97;101008.56;15796822;28;20040;-52
2024/03/14 05:57:20;;;;;;;0.40;0.35;;;;;;;10.86;83.58;100998.88;15804664;28;20042;-51
2024/03/14 06:04:55;;;;;;;1.17;0.52;;;;;;;10.63;84.09;100999.31;15795339;28;20395;-50
2024/03/14 06:12:29;;;;;;;3.63;1.40;;;;;;;10.60;84.30;101004.25;15812433;28;20428;-53
2024/03/14 06:20:07;;;;;;;1.95;1.85;;;;;;;10.71;84.60;101019.75;15786831;28;20463;-50
2024/03/14 06:27:41;;;;;;;0.82;0.82;;;;;;;10.39;86.79;101007.91;15765554;28;20236;-51
2024/03/14 06:35:17;;;;;;;1.67;0.80;;;;;;;10.85;85.20;101013.34;15766289;28;20506;-53
2024/03/14 06:42:53;;;;;;;0.00;0.00;;;;;;;10.59;85.83;101010.66;15806994;28;20031;-55
2024/03/14 06:50:27;;;;;;;0.25;0.25;;;;;;;10.84;85.45;101014.38;15746173;28;20036;-52
2024/03/14 06:58:01;;;;;;;0.73;0.73;;;;;;;10.94;85.00;101024.72;15755051;28;20139;-54
2024/03/14 07:05:37;;;;;;;2.08;1.45;;;;;;;11.12;84.80;101029.50;15772095;28;20048;-54
2024/03/14 07:13:12;;;;;;;3.10;1.10;;;;;;;10.94;85.62;101025.53;15802269;28;20521;-51
2024/03/14 07:20:46;;;;;;;0.35;0.35;;;;;;;11.01;84.61;101030.94;15793807;28;20123;-55
2024/03/14 07:28:21;;;;;;;0.55;0.55;;;;;;;10.92;85.53;101032.16;15790832;28;20038;-55
2024/03/14 07:35:55;;;;;;;0.88;0.88;;;;;;;11.11;84.28;101041.28;15778685;28;20056;-55
2024/03/14 07:43:29;;;;;;;1.02;1.00;;;;;;;11.24;83.62;101052.03;15794258;28;20044;-55
2024/03/14 07:51:05;;;;;;;0.70;0.55;;;;;;;11.21;84.50;101055.13;15791625;28;20044;-53
2024/03/14 07:58:39;;;;;;;3.30;1.83;;;;;;;11.44;83.71;101058.22;15792338;28;20203;-51
2024/03/14 08:06:15;;;;;;;1.10;1.00;;;;;;;10.92;85.65;101062.53;15778453;28;20078;-52
2024/03/14 08:13:50;;;;;;;1.80;0.73;;;;;;;11.62;83.61;101067.50;15778690;28;20102;-52
2024/03/14 08:21:29;;;;;;;0.30;0.30;;;;;;;11.63;84.82;101063.78;15746059;28;20133;-50
2024/03/14 08:29:02;;;;;;;0.08;0.08;;;;;;;12.10;81.96;101075.28;15771359;28;20481;-51
2024/03/14 08:36:41;;;;;;;1.42;0.77;;;;;;;11.51;83.49;101074.31;15769955;28;20044;-53
2024/03/14 08:44:14;;;;;;;10.63;1.38;;;;;;;12.08;81.96;101080.06;15788437;28;20044;-50
2024/03/14 08:51:48;;;;;;;1.88;1.58;;;;;;;12.05;81.42;101081.28;15815089;28;20135;-54
2024/03/14 08:59:22;;;;;;;0.68;0.68;;;;;;;12.16;82.04;101077.13;15822909;28;20118;-53
2024/03/14 09:06:58;;;;;;;0.20;0.20;;;;;;;12.09;80.83;101082.53;15828822;27;20062;-51
2024/03/14 09:14:32;;;;;;;5.90;1.98;;;;;;;12.06;82.12;101080.25;15832299;28;20031;-51
2024/03/14 09:22:08;;;;;;;0.75;0.73;;;;;;;12.35;80.35;101081.59;15839550;28;20047;-51
2024/03/14 09:29:43;;;;;;;1.25;0.95;;;;;;;13.03;77.50;101064.84;15830786;28;20043;-51
2024/03/14 09:37:17;;;;;;;1.23;0.63;;;;;;;12.97;76.61;101071.94;15822805;28;20054;-53
2024/03/14 09:44:51;;;;;;;0.80;0.80;;;;;;;13.21;75.92;101061.41;15838060;22;20475;-50
2024/03/14 09:52:25;;;;;;;0.95;0.93;;;;;;;13.42;75.23;101073.69;15755851;28;20435;-54
2024/03/14 09:59:59;;;;;;;1.92;1.08;;;;;;;13.67;73.79;101069.13;15729479;28;20075;-51
2024/03/14 10:07:33;;;;;;;2.28;1.98;;;;;;;13.57;72.09;101062.56;15727478;28;20045;-53
2024/03/14 10:15:12;;;;;;;1.75;0.98;;;;;;;13.52;72.93;101055.97;15743916;28;20434;-51
2024/03/14 10:22:48;;;;;;;0.63;0.63;;;;;;;13.88;69.66;101051.66;15774159;28;20044;-52
2024/03/14 10:30:23;;;;;;;1.70;0.80;;;;;;;14.04;70.00;101042.16;15755898;28;20513;-52
2024/03/14 10:37:58;;;;;;;0.52;0.50;;;;;;;13.54;70.06;101031.47;15757345;28;20040;-51
2024/03/14 10:45:32;;;;;;;0.75;0.75;;;;;;;14.13;69.12;101037.25;15747494;28;20289;-52
2024/03/14 10:53:06;;;;;;;1.58;1.48;;;;;;;14.47;66.07;101030.38;15744564;28;20546;-50
2024/03/14 11:00:40;;;;;;;2.72;1.02;;;;;;;14.59;63.31;101015.06;15749206;28;20079;-50
2024/03/14 11:08:21;;;;;;;0.50;0.50;;;;;;;14.58;64.24;101015.31;15744615;28;20545;-53
2024/03/14 11:15:55;;;;;;;0.03;0.03;;;;;;;14.76;64.51;101020.66;15753081;28;20047;-52
2024/03/14 11:23:29;;;;;;;1.65;0.85;;;;;;;15.06;61.59;101012.47;15754157;28;20047;-51
2024/03/14 11:31:06;;;;;;;1.35;1.20;;;;;;;15.37;60.58;101011.31;15748136;28;20064;-49
2024/03/14 11:38:39;;;;;;;0.85;0.85;;;;;;;16.64;55.16;100996.88;15732110;28;20048;-52
2024/03/14 11:46:14;;;;;;;2.60;1.60;;;;;;;17.21;51.93;100994.06;15735604;28;20576;-51
2024/03/14 11:53:51;;;;;;;0.65;0.65;;;;;;;17.78;50.64;100991.09;15729386;28;20127;-53
2024/03/14 12:01:25;;;;;;;4.22;1.60;;;;;;;17.97;51.26;100977.22;15747866;28;20508;-52
2024/03/14 12:08:58;;;;;;;0.95;0.25;;;;;;;16.50;54.29;100971.16;15728014;28;20044;-50
2024/03/14 12:16:34;;;;;;;1.38;1.27;;;;;;;16.30;53.55;100964.31;15738066;28;20073;-52
2024/03/14 12:24:12;;;;;;;18.75;1.67;;;;;;;16.32;52.81;100940.50;15753525;28;20051;-50
2024/03/14 12:31:49;;;;;;;0.60;0.60;;;;;;;15.75;53.40;100967.53;15757474;28;20460;-50
2024/03/14 12:39:25;;;;;;;1.33;0.50;;;;;;;15.87;54.62;100959.41;15739440;28;20036;-53
2024/03/14 12:46:59;;;;;;;0.43;0.43;;;;;;;15.65;55.84;100956.50;15751903;28;20407;-49
2024/03/14 12:54:36;;;;;;;0.30;0.30;;;;;;;15.49;54.70;100958.03;15754098;28;20601;-51
2024/03/14 13:02:10;;;;;;;0.20;0.20;;;;;;;15.32;55.27;100944.41;15733006;28;20051;-48
2024/03/14 13:10:09;;;;;;;0.77;0.68;;;;;;;15.23;55.92;100935.00;15705652;27;20533;-47
2024/03/14 13:17:47;;;;;;;1.08;0.32;;;;;;;15.84;53.66;100932.00;15897775;22;20091;-52
2024/03/14 13:25:23;;;;;;;0.25;0.25;;;;;;;16.03;54.21;100928.03;15755482;28;20063;-53
2024/03/14 13:32:59;;;;;;;0.60;0.60;;;;;;;15.65;54.37;100925.91;15776046;28;20058;-54
2024/03/14 13:40:39;;;;;;;1.55;0.52;;;;;;;15.81;53.55;100928.72;15784073;28;20164;-52
2024/03/14 13:48:17;;;;;;;0.08;0.08;;;;;;;15.65;54.33;100925.91;15796911;28;20032;-56
2024/03/14 13:55:56;;;;;;;1.92;1.48;;;;;;;15.46;54.83;100917.94;15850038;28;20043;-53
2024/03/14 14:03:34;;;;;;;0.00;0.00;;;;;;;15.66;54.52;100917.56;15843831;28;20039;-52
2024/03/14 14:11:12;;;;;;;0.43;0.43;;;;;;;15.84;55.24;100921.97;15853501;28;20102;-55
2024/03/14 14:18:49;;;;;;;0.38;0.20;;;;;;;15.79;54.64;100913.75;15774073;28;20032;-51
2024/03/14 14:26:23;;;;;;;0.40;0.25;;;;;;;16.15;53.44;100899.03;15775980;28;20040;-55
2024/03/14 14:33:58;;;;;;;0.13;0.13;;;;;;;16.05;53.27;100894.25;15757079;28;20051;-53
2024/03/14 14:41:32;;;;;;;21.35;1.55;;;;;;;15.67;54.85;100881.34;15797085;28;20044;-50
2024/03/14 14:49:07;;;;;;;1.67;0.20;;;;;;;16.38;53.64;100870.16;15780719;28;20040;-51
2024/03/14 14:56:44;;;;;;;0.38;0.32;;;;;;;16.01;53.41;100866.00;15770165;28;20412;-54
2024/03/14 15:04:18;;;;;;;0.65;0.20;;;;;;;16.44;52.06;100856.44;15753765;28;20565;-53
2024/03/14 15:11:58;;;;;;;0.00;0.00;;;;;;;16.83;51.99;100848.38;15770977;28;20097;-53
2024/03/14 15:19:37;;;;;;;22.42;0.57;;;;;;;16.15;53.25;100844.03;15750727;28;20076;-50
2024/03/14 15:27:11;;;;;;;0.10;0.10;;;;;;;15.44;55.16;100844.31;15751616;28;20504;-51
2024/03/14 15:34:46;;;;;;;0.00;0.00;;;;;;;15.53;54.99;100826.66;15751135;28;20400;-52
2024/03/14 15:42:20;;;;;;;0.00;0.00;;;;;;;15.69;54.85;100830.50;15767997;28;20562;-52
2024/03/14 15:49:55;;;;;;;0.47;0.30;;;;;;;15.39;55.56;100827.16;15749286;28;20065;-53
2024/03/14 16:03:53;;;;;;;0.28;0.28;;;;;;;15.43;56.18;100825.59;15657245;27;20129;-52
2024/03/14 16:11:30;;;;;;;0.05;0.05;;;;;;;15.28;57.05;100810.72;15510631;22;20045;-49
2024/03/14 16:19:05;;;;;;;0.00;0.00;;;;;;;15.41;56.78;100815.03;15633012;28;20040;-48
2024/03/14 16:26:39;;;;;;;0.00;0.00;;;;;;;15.02;58.00;100812.09;15609316;28;20649;-52
2024/03/14 16:34:13;;;;;;;0.00;0.00;;;;;;;14.75;59.26;100806.34;15607734;28;20099;-52
2024/03/14 16:41:50;;;;;;;2.50;0.60;;;;;;;14.88;59.34;100808.00;15607548;28;20041;-51
2024/03/14 16:49:24;;;;;;;1.10;1.00;;;;;;;14.74;59.65;100804.72;15614325;28;20037;-50
2024/03/14 16:56:58;;;;;;;5.05;0.65;;;;;;;14.69;60.17;100804.59;15593779;28;20121;-49
2024/03/14 17:04:33;;;;;;;0.10;0.10;;;;;;;14.82;59.81;100803.53;15586971;28;20044;-54
2024/03/14 17:12:07;;;;;;;0.10;0.10;;;;;;;14.33;61.37;100799.41;15587797;28;20476;-50
2024/03/14 17:19:42;;;;;;;0.10;0.10;;;;;;;14.59;60.60;100815.16;15547235;28;20069;-51
2024/03/14 17:27:16;;;;;;;0.15;0.15;;;;;;;13.75;63.34;100804.41;15533152;28;20038;-49
2024/03/14 17:34:51;;;;;;;0.10;0.10;;;;;;;14.14;62.54;100815.69;15570199;28;20413;-52
2024/03/14 17:42:26;;;;;;;0.00;0.00;;;;;;;13.27;65.66;100807.16;15570588;28;20045;-47
2024/03/14 17:49:59;;;;;;;0.08;0.08;;;;;;;13.09;66.01;100802.56;15579963;28;20080;-47
2024/03/14 17:57:33;;;;;;;0.22;0.17;;;;;;;13.26;66.14;100817.13;15576620;28;20103;-49
2024/03/14 18:05:08;;;;;;;0.28;0.28;;;;;;;13.77;63.63;100820.41;15557004;28;20128;-52
2024/03/14 18:12:44;;;;;;;0.00;0.00;;;;;;;13.55;64.60;100817.38;15522985;28;20109;-52
2024/03/14 18:20:19;;;;;;;0.00;0.00;;;;;;;13.27;65.49;100810.66;15555168;28;20046;-52
2024/03/14 18:27:53;;;;;;;2.55;0.73;;;;;;;12.91;67.18;100816.03;15559311;28;20099;-51
2024/03/14 18:35:31;;;;;;;0.43;0.35;;;;;;;12.81;67.86;100813.03;15566240;28;20050;-62
2024/03/14 18:43:05;;;;;;;2.35;0.57;;;;;;;12.87;67.81;100807.59;15545354;28;20053;-50
2024/03/14 18:50:40;;;;;;;0.88;0.15;;;;;;;13.18;66.21;100812.00;15569216;28;20057;-51
2024/03/14 18:58:14;;;;;;;0.08;0.08;;;;;;;13.00;67.18;100820.91;15536053;28;20068;-53
2024/03/14 19:05:47;;;;;;;0.05;0.05;;;;;;;12.71;67.81;100811.66;15537434;28;20048;-47
2024/03/14 19:13:29;;;;;;;4.75;0.57;;;;;;;12.25;69.76;100804.00;15555272;28;20080;-52
2024/03/14 19:21:04;;;;;;;0.30;0.30;;;;;;;12.22;69.97;100804.47;15525050;28;20038;-50
2024/03/14 19:28:40;;;;;;;0.75;0.52;;;;;;;12.35;69.58;100803.53;15529203;28;20068;-49
2024/03/14 19:36:14;;;;;;;0.30;0.30;;;;;;;12.05;71.16;100809.56;15538247;28;20041;-50
2024/03/14 19:43:48;;;;;;;0.60;0.60;;;;;;;11.97;71.10;100794.50;15558691;28;20592;-50
2024/03/14 19:51:23;;;;;;;0.77;0.77;;;;;;;11.83;72.04;100800.19;15527182;28;20042;-54
2024/03/14 19:58:59;;;;;;;0.00;0.00;;;;;;;11.64;72.73;100796.56;15550471;28;20122;-51
2024/03/14 20:06:32;;;;;;;0.00;0.00;;;;;;;11.42;73.92;100804.94;15565190;28;20083;-52
2024/03/14 20:14:06;;;;;;;1.55;0.30;;;;;;;11.48;73.87;100796.03;15567568;28;20470;-53
2024/03/14 20:21:43;;;;;;;0.10;0.10;;;;;;;11.48;74.13;100779.91;15555090;28;20379;-51
2024/03/14 20:29:19;;;;;;;0.68;0.50;;;;;;;11.23;75.16;100787.84;15528837;28;20142;-51
2024/03/14 20:36:56;;;;;;;0.10;0.10;;;;;;;11.16;75.07;100779.00;15541877;28;20045;-53
2024/03/14 20:44:31;;;;;;;0.35;0.28;;;;;;;11.06;75.71;100775.13;15552592;28;20060;-52
2024/03/14 20:52:05;;;;;;;0.50;0.32;;;;;;;10.76;76.97;100772.94;15553225;28;20034;-50
2024/03/14 20:59:39;;;;;;;0.00;0.00;;;;;;;10.92;76.23;100759.06;15577563;28;20114;-54
2024/03/14 21:07:14;;;;;;;3.92;0.40;;;;;;;10.44;78.31;100750.50;15577345;28;20447;-50
2024/03/14 21:14:48;;;;;;;0.17;0.17;;;;;;;10.82;77.26;100744.41;15565535;28;20111;-53
2024/03/14 21:22:25;;;;;;;3.15;0.60;;;;;;;10.56;77.65;100745.34;15567737;28;20406;-49
2024/03/14 21:30:03;;;;;;;0.00;0.00;;;;;;;10.91;76.70;100748.50;15556456;28;20133;-49
2024/03/14 21:37:38;;;;;;;0.10;0.10;;;;;;;10.76;76.67;100753.31;15593243;28;20077;-52
2024/03/14 21:45:14;;;;;;;0.10;0.10;;;;;;;10.40;78.33;100752.78;15580608;28;20049;-52
2024/03/14 21:52:49;;;;;;;0.60;0.60;;;;;;;10.16;79.47;100745.34;15549361;28;20052;-51
2024/03/14 22:00:25;;;;;;;0.10;0.10;;;;;;;10.21;79.56;100735.66;15552097;28;20046;-53
2024/03/14 22:08:06;;;;;;;0.20;0.20;;;;;;;10.14;80.04;100723.28;15564199;28;20056;-50
2024/03/14 22:15:42;;;;;;;2.03;1.25;;;;;;;10.14;79.85;100721.41;15513013;22;20494;-52
2024/03/14 22:23:16;;;;;;;0.10;0.10;;;;;;;9.73;82.25;100700.19;15517271;28;20046;-51
2024/03/14 22:30:50;;;;;;;1.75;0.95;;;;;;;9.37;84.63;100697.84;15479956;28;20043;-51
2024/03/14 22:38:25;;;;;;;0.10;0.10;;;;;;;9.89;83.27;100697.09;15503181;28;20113;-50
2024/03/14 22:46:00;;;;;;;1.00;0.90;;;;;;;9.96;82.15;100695.22;15495477;28;20387;-50
2024/03/14 22:53:34;;;;;;;0.00;0.00;;;;;;;9.94;81.54;100691.13;15504773;28;20088;-49
2024/03/14 23:01:10;;;;;;;0.22;0.22;;;;;;;10.05;81.09;100693.16;15488491;28;20058;-47
2024/03/14 23:08:48;;;;;;;0.00;0.00;;;;;;;10.26;79.04;100689.47;15527483;28;20072;-52
2024/03/14 23:16:30;;;;;;;0.57;0.47;;;;;;;10.14;77.17;100689.22;15530492;28;20052;-50
2024/03/14 23:24:06;;;;;;;0.15;0.10;;;;;;;9.85;76.33;100695.84;15525681;28;20045;-51
2024/03/14 23:31:41;;;;;;;0.28;0.20;;;;;;;9.56;76.37;100702.44;15500732;28;20527;-52
2024/03/14 23:39:17;;;;;;;0.30;0.30;;;;;;;9.37;75.96;100688.00;15499626;28;20057;-49
2024/03/14 23:46:52;;;;;;;0.00;0.00;;;;;;;9.35;77.94;100673.97;15482698;28;20121;-51
2024/03/14 23:54:26;;;;;;;0.00;0.00;;;;;;;9.36;77.35;100672.94;15516925;28;20046;-50
